createdAt,value
2023-03-15T01:52:29.506Z,504.00
2023-03-15T01:56:29.523Z,505.00
2023-03-15T02:00:29.254Z,505.00
2023-03-15T02:04:29.506Z,502.00
2023-03-15T02:08:29.512Z,510.00
2023-03-15T02:12:29.754Z,507.00
2023-03-15T02:16:29.853Z,507.00
2023-03-15T02:20:30.031Z,508.00
2023-03-15T02:24:30.029Z,505.00
2023-03-15T02:28:29.865Z,506.00
2023-03-15T02:32:30.144Z,505.00
2023-03-15T02:36:29.896Z,505.00
2023-03-15T02:40:30.002Z,505.00
2023-03-15T02:44:30.035Z,507.00
2023-03-15T02:48:30.104Z,507.00
2023-03-15T02:52:31.033Z,507.00
2023-03-15T02:56:30.139Z,505.00
2023-03-15T03:00:30.177Z,507.00
2023-03-15T03:04:30.567Z,509.00
2023-03-15T03:08:30.663Z,505.00
2023-03-15T03:12:30.943Z,505.00
2023-03-15T03:16:31.230Z,504.00
2023-03-15T03:20:31.491Z,505.00
2023-03-15T03:24:32.043Z,507.00
2023-03-15T03:28:32.045Z,507.00
2023-03-15T03:32:32.287Z,505.00
2023-03-15T03:36:32.685Z,508.00
2023-03-15T03:40:32.296Z,510.00
2023-03-15T03:44:32.317Z,510.00
2023-03-15T03:48:32.555Z,511.00
2023-03-15T03:52:32.394Z,511.00
2023-03-15T03:56:32.567Z,507.00
2023-03-15T04:00:32.818Z,506.00
2023-03-15T04:04:33.131Z,511.00
2023-03-15T04:08:33.381Z,506.00
2023-03-15T04:16:40.049Z,506.00
2023-03-15T04:56:35.604Z,511.00
2023-03-15T05:00:35.574Z,514.00
2023-03-15T05:04:35.812Z,511.00
2023-03-15T05:08:36.045Z,514.00
2023-03-15T05:12:36.608Z,511.00
2023-03-15T05:16:36.386Z,514.00
2023-03-15T05:20:36.312Z,514.00
2023-03-15T05:24:36.335Z,516.00
2023-03-15T05:28:36.382Z,516.00
2023-03-15T05:32:36.415Z,512.00
2023-03-15T05:36:36.395Z,509.00
2023-03-15T05:40:36.540Z,513.00
2023-03-15T05:44:36.622Z,513.00
2023-03-15T05:48:36.544Z,515.00
2023-03-15T05:52:36.609Z,513.00
2023-03-15T05:56:36.592Z,513.00
2023-03-15T06:00:36.621Z,512.00
2023-03-15T06:04:36.756Z,513.00
2023-03-15T06:08:36.690Z,516.00
2023-03-15T06:12:36.947Z,516.00
2023-03-15T06:16:37.680Z,517.00
2023-03-15T06:20:37.613Z,513.00
2023-03-15T06:24:38.139Z,516.00
2023-03-15T06:28:37.605Z,518.00
2023-03-15T06:32:37.685Z,522.00
2023-03-15T06:36:37.615Z,500.00
2023-03-15T06:40:37.615Z,525.00
2023-03-15T06:44:38.115Z,523.00
2023-03-15T06:48:38.214Z,538.00
2023-03-15T06:56:38.631Z,580.00
2023-03-15T08:56:06.058Z,500.00
2023-03-15T09:00:07.027Z,500.00
2023-03-15T09:04:07.595Z,583.00
2023-03-15T09:08:07.546Z,604.00
2023-03-15T09:12:08.049Z,654.00
2023-03-15T09:16:07.466Z,648.00
2023-03-15T09:20:08.121Z,742.00
2023-03-15T09:24:08.032Z,642.00
2023-03-15T09:28:09.613Z,642.00
2023-03-15T09:32:09.068Z,927.00
2023-03-15T09:36:09.031Z,787.00
2023-03-15T09:40:08.884Z,844.00
2023-03-15T09:44:09.556Z,833.00
2023-03-15T09:48:09.554Z,517.00
2023-03-15T09:52:10.046Z,945.00
2023-03-15T09:56:10.036Z,732.00
2023-03-15T10:00:10.567Z,627.00
2023-03-15T10:04:11.054Z,637.00
2023-03-15T10:08:12.142Z,655.00
2023-03-15T10:12:11.047Z,795.00
2023-03-15T10:16:11.713Z,696.00
2023-03-15T10:20:12.268Z,603.00
2023-03-15T10:24:12.055Z,597.00
2023-03-15T10:28:12.056Z,638.00
2023-03-15T10:32:12.650Z,557.00
2023-03-15T10:36:12.606Z,530.00
2023-03-15T10:40:13.053Z,498.00
2023-03-15T10:44:13.053Z,511.00
2023-03-15T10:48:13.357Z,593.00
2023-03-15T10:52:14.055Z,1009.00
2023-03-15T10:56:14.076Z,912.00
2023-03-15T11:00:14.559Z,658.00
2023-03-15T11:04:14.626Z,624.00
2023-03-15T11:08:14.646Z,590.00
2023-03-15T11:12:15.073Z,602.00
2023-03-15T11:16:15.678Z,616.00
2023-03-15T11:20:23.501Z,694.00
2023-03-15T11:24:16.128Z,746.00
2023-03-15T11:28:16.069Z,553.00
2023-03-15T11:32:15.919Z,551.00
2023-03-15T11:36:16.102Z,647.00
2023-03-15T11:40:17.324Z,1123.00
2023-03-15T11:44:16.570Z,1088.00
2023-03-15T11:48:16.573Z,880.00
2023-03-15T11:52:17.099Z,768.00
2023-03-15T11:56:17.079Z,1217.00
2023-03-15T12:00:17.228Z,1703.00
2023-03-15T12:04:17.581Z,1908.00
2023-03-15T12:08:18.106Z,1949.00
2023-03-15T12:12:17.584Z,1994.00
2023-03-15T12:16:18.100Z,2036.00
2023-03-15T12:20:18.139Z,2028.00
2023-03-15T12:24:18.114Z,2068.00
2023-03-15T12:28:18.588Z,2085.00
2023-03-15T12:32:18.589Z,1625.00
2023-03-15T12:36:19.084Z,1592.00
2023-03-15T12:40:19.638Z,1510.00
2023-03-15T12:44:18.946Z,1721.00
2023-03-15T12:48:19.054Z,1839.00
2023-03-15T12:52:19.265Z,1890.00
2023-03-15T12:56:19.637Z,1962.00
2023-03-15T13:00:20.638Z,1997.00
2023-03-15T13:04:20.097Z,2018.00
2023-03-15T13:08:19.935Z,2046.00
2023-03-15T13:12:20.132Z,2068.00
2023-03-15T13:16:20.237Z,2073.00
2023-03-15T13:20:20.099Z,2055.00
2023-03-15T13:24:21.103Z,2058.00
2023-03-15T13:28:20.290Z,2020.00
2023-03-15T13:32:20.618Z,2023.00
2023-03-15T13:36:21.109Z,2016.00
2023-03-15T13:40:20.892Z,2016.00
2023-03-15T13:44:21.667Z,1989.00
2023-03-15T13:48:21.620Z,1982.00
2023-03-15T13:52:21.510Z,1975.00
2023-03-15T13:56:22.688Z,1958.00
2023-03-15T14:00:22.658Z,1925.00
2023-03-15T14:04:22.081Z,1937.00
2023-03-15T14:08:22.632Z,1944.00
2023-03-15T14:12:22.628Z,1926.00
2023-03-15T14:16:23.265Z,1907.00
2023-03-15T14:20:23.163Z,1909.00
2023-03-15T14:24:23.634Z,1884.00
2023-03-15T14:28:24.635Z,1889.00
2023-03-15T14:32:24.311Z,1872.00
2023-03-15T14:36:24.205Z,1858.00
2023-03-15T14:40:24.415Z,1860.00
2023-03-15T14:44:25.142Z,1851.00
2023-03-15T14:48:25.183Z,1833.00
2023-03-15T14:52:25.646Z,1834.00
2023-03-15T14:56:25.643Z,1809.00
2023-03-15T15:00:25.646Z,1781.00
2023-03-15T15:04:26.179Z,1754.00
2023-03-15T15:08:26.153Z,1876.00
2023-03-15T15:12:26.170Z,1816.00
2023-03-15T15:16:26.113Z,1876.00
2023-03-15T15:20:26.255Z,1842.00
2023-03-15T15:24:26.657Z,1734.00
2023-03-15T15:28:36.472Z,1782.00
2023-03-15T15:32:26.668Z,1789.00
2023-03-15T15:36:26.601Z,1784.00
2023-03-15T15:40:26.667Z,1785.00
2023-03-15T15:44:26.703Z,1807.00
2023-03-15T15:48:27.168Z,1814.00
2023-03-15T15:52:27.188Z,1813.00
2023-03-15T15:56:27.184Z,1798.00
2023-03-15T16:00:27.166Z,1801.00
2023-03-15T16:04:27.820Z,1786.00
2023-03-15T16:08:27.700Z,1785.00
2023-03-15T16:12:27.197Z,1769.00
2023-03-15T16:16:27.122Z,1777.00
2023-03-15T16:20:28.170Z,1762.00
2023-03-15T16:24:27.469Z,1767.00
2023-03-15T16:28:27.695Z,1745.00
2023-03-15T16:32:43.058Z,1731.00
2023-03-15T16:36:27.836Z,1734.00
2023-03-15T16:40:28.203Z,1720.00
2023-03-15T16:44:27.927Z,1710.00
2023-03-15T16:48:27.977Z,1687.00
2023-03-15T16:52:28.028Z,1675.00
2023-03-15T16:56:28.107Z,1657.00
2023-03-15T17:00:28.126Z,1642.00
2023-03-15T17:04:28.236Z,1620.00
2023-03-15T17:08:28.245Z,1605.00
2023-03-15T17:12:28.366Z,1605.00
2023-03-15T17:16:28.584Z,1591.00
2023-03-15T17:20:28.783Z,1564.00
2023-03-15T17:24:29.014Z,1550.00
2023-03-15T17:28:29.285Z,1542.00
2023-03-15T17:32:29.568Z,1517.00
2023-03-15T17:36:30.217Z,1492.00
2023-03-15T17:40:30.078Z,1482.00
2023-03-15T17:44:30.255Z,1462.00
2023-03-15T17:48:30.464Z,1455.00
2023-03-15T17:52:30.712Z,1454.00
2023-03-15T17:56:30.936Z,1449.00
2023-03-15T18:00:31.217Z,1464.00
2023-03-15T18:04:31.435Z,1478.00
2023-03-15T18:08:31.701Z,1469.00
2023-03-15T18:12:31.949Z,1473.00
2023-03-15T18:16:32.810Z,1471.00
2023-03-15T18:20:32.457Z,1476.00
2023-03-15T18:24:32.650Z,1467.00
2023-03-15T18:28:32.880Z,1467.00
2023-03-15T18:32:33.263Z,1448.00
2023-03-15T18:36:33.378Z,1450.00
2023-03-15T18:40:33.610Z,1449.00
2023-03-15T18:44:33.842Z,1439.00
2023-03-15T18:48:40.551Z,1442.00
2023-03-15T18:52:34.136Z,1444.00
2023-03-15T18:56:34.247Z,1444.00
2023-03-15T19:00:34.293Z,1440.00
2023-03-15T19:04:34.411Z,1420.00
2023-03-15T19:08:34.478Z,1401.00
2023-03-15T19:12:34.568Z,1406.00
2023-03-15T19:16:34.727Z,1381.00
2023-03-15T19:20:34.778Z,1376.00
2023-03-15T19:24:34.832Z,1387.00
2023-03-15T19:28:34.916Z,1376.00
2023-03-15T19:32:35.282Z,1364.00
2023-03-15T19:36:35.456Z,1354.00
2023-03-15T19:40:35.688Z,1356.00
2023-03-15T19:44:36.251Z,1352.00
2023-03-15T19:48:36.213Z,1346.00
2023-03-15T20:48:40.495Z,1261.00
2023-03-15T20:52:40.797Z,1259.00
2023-03-15T20:56:41.091Z,1262.00
2023-03-15T21:00:41.800Z,1246.00
2023-03-15T21:04:41.664Z,1245.00
2023-03-15T21:08:41.952Z,1233.00
2023-03-15T21:12:42.311Z,1225.00
2023-03-15T21:16:42.622Z,1229.00
2023-03-15T21:20:42.827Z,1224.00
2023-03-15T21:24:54.739Z,1210.00
2023-03-15T21:28:43.241Z,1214.00
2023-03-15T21:32:43.363Z,1217.00
2023-03-15T21:36:43.398Z,1225.00
2023-03-15T21:40:43.491Z,1218.00
2023-03-15T21:44:43.830Z,1197.00
2023-03-15T21:48:43.805Z,1196.00
2023-03-15T21:52:43.794Z,1186.00
2023-03-15T21:56:43.907Z,1179.00
2023-03-15T22:00:44.344Z,1168.00
2023-03-15T22:04:44.488Z,1161.00
2023-03-15T22:08:44.743Z,1172.00
2023-03-15T23:08:49.827Z,1126.00
2023-03-15T23:12:49.689Z,1119.00
2023-03-15T23:16:49.966Z,1118.00
2023-03-15T23:20:50.302Z,1115.00
2023-03-15T23:24:50.834Z,1118.00
2023-03-15T23:28:50.916Z,1113.00
2023-03-15T23:32:51.272Z,1117.00
2023-03-15T23:36:51.658Z,1106.00
2023-03-15T23:40:51.868Z,1099.00
